Time;durP1;ratioP1;P1;durP2;ratioP2;P2;SDS_P1;SDS_P2;PMS_P1;PMS_P2;Temp;Humidity;BMP_temperature;BMP_pressure;BME280_temperature;BME280_humidity;BME280_pressure;Samples;Min_cycle;Max_cycle;Signal;HPM_P1;HPM_P2
2022/10/30 00:00:20;;;;;;;13.77;6.55;;;;;;;16.83;77.73;101718.38;5026327;28;20101;-50
2022/10/30 00:02:46;;;;;;;17.27;6.93;;;;;;;16.81;77.79;101720.94;5035042;28;20436;-52
2022/10/30 00:05:12;;;;;;;21.10;7.63;;;;;;;16.84;77.97;101717.50;5035836;28;20401;-52
2022/10/30 00:07:37;;;;;;;18.13;6.65;;;;;;;16.81;77.82;101717.47;5034721;28;20030;-48
2022/10/30 00:10:02;;;;;;;20.65;7.57;;;;;;;16.80;78.16;101723.50;5032486;28;20048;-51
2022/10/30 00:12:28;;;;;;;17.70;6.90;;;;;;;16.74;77.86;101715.59;5032354;28;20039;-51
2022/10/30 00:14:53;;;;;;;19.25;6.97;;;;;;;16.77;77.98;101713.06;5034300;28;20478;-51
2022/10/30 00:17:19;;;;;;;21.33;7.50;;;;;;;16.72;77.30;101717.31;5031994;28;20029;-51
2022/10/30 00:19:44;;;;;;;16.88;6.70;;;;;;;16.66;77.88;101720.66;5036623;28;20048;-51
2022/10/30 00:22:09;;;;;;;16.80;6.65;;;;;;;16.66;78.12;101717.19;5031017;28;20038;-49
2022/10/30 00:24:35;;;;;;;16.55;7.07;;;;;;;16.68;77.92;101720.66;5040602;28;20033;-52
2022/10/30 00:27:00;;;;;;;20.60;6.95;;;;;;;16.60;78.29;101717.94;5034883;28;20060;-51
2022/10/30 00:29:25;;;;;;;21.80;6.60;;;;;;;16.59;78.42;101719.66;5040827;28;20037;-50
2022/10/30 00:31:51;;;;;;;15.32;6.30;;;;;;;16.57;78.21;101712.72;5040456;28;20037;-51
2022/10/30 00:34:17;;;;;;;18.80;7.10;;;;;;;16.55;78.42;101709.19;5036952;28;20021;-51
2022/10/30 00:36:42;;;;;;;19.80;7.55;;;;;;;16.51;78.39;101713.47;5035806;28;20034;-47
2022/10/30 00:39:08;;;;;;;15.43;7.00;;;;;;;16.47;78.46;101714.28;5036272;28;20028;-51
2022/10/30 00:41:33;;;;;;;17.08;7.20;;;;;;;16.47;78.80;101706.47;5041828;28;20029;-50
2022/10/30 00:43:58;;;;;;;19.35;6.97;;;;;;;16.49;78.43;101703.91;5040142;28;20026;-50
2022/10/30 00:46:37;;;;;;;18.88;6.93;;;;;;;16.54;78.69;101703.13;5039054;28;20032;-51
2022/10/30 00:49:12;;;;;;;21.30;6.78;;;;;;;16.48;79.38;101708.22;5037829;28;20070;-51
2022/10/30 00:51:42;;;;;;;14.85;6.68;;;;;;;16.44;79.16;101702.94;5034474;28;20060;-50
2022/10/30 00:54:09;;;;;;;20.23;6.88;;;;;;;16.36;79.10;101713.19;5040613;28;20390;-49
2022/10/30 00:56:35;;;;;;;18.08;7.05;;;;;;;16.42;79.14;101709.84;5033126;28;20160;-50
2022/10/30 00:59:06;;;;;;;16.25;6.90;;;;;;;16.42;79.17;101708.13;5038316;28;20029;-51
2022/10/30 01:01:36;;;;;;;11.98;6.35;;;;;;;16.44;78.82;101715.91;5035164;28;20020;-50
2022/10/30 01:04:04;;;;;;;19.50;6.88;;;;;;;16.42;79.23;101715.91;5041168;28;20032;-50
2022/10/30 01:06:32;;;;;;;18.45;6.57;;;;;;;16.37;79.41;101714.94;5041294;28;20401;-50
2022/10/30 01:08:59;;;;;;;24.15;7.13;;;;;;;16.34;78.90;101713.19;5035913;28;20041;-51
2022/10/30 01:11:24;;;;;;;15.77;6.43;;;;;;;16.34;79.20;101714.91;5033357;28;20036;-52
2022/10/30 01:13:52;;;;;;;18.08;7.03;;;;;;;16.30;79.18;101708.78;5039178;28;20033;-52
2022/10/30 01:16:36;;;;;;;20.58;6.78;;;;;;;16.31;79.72;101720.03;5036025;28;20025;-50
2022/10/30 01:19:21;;;;;;;15.48;7.00;;;;;;;16.26;79.36;101713.88;5037234;28;20478;-51
2022/10/30 01:21:46;;;;;;;18.58;6.88;;;;;;;16.19;79.49;101707.69;5027854;28;20024;-50
2022/10/30 01:24:18;;;;;;;18.40;6.57;;;;;;;16.23;79.52;101717.28;5036478;28;20388;-52
2022/10/30 01:27:11;;;;;;;19.38;7.00;;;;;;;16.22;79.47;101715.56;5039689;28;20104;-50
2022/10/30 01:29:42;;;;;;;18.80;7.00;;;;;;;16.12;79.77;101720.53;5038156;28;20022;-51
2022/10/30 01:32:51;;;;;;;22.85;6.72;;;;;;;16.21;79.62;101715.53;5034610;28;20036;-51
2022/10/30 01:35:26;;;;;;;17.17;6.68;;;;;;;16.20;80.10;101716.34;5032730;28;20017;-51
2022/10/30 01:38:11;;;;;;;23.33;7.10;;;;;;;16.18;79.82;101713.75;5037835;28;20022;-51
2022/10/30 01:40:37;;;;;;;21.30;6.82;;;;;;;16.08;80.14;101719.63;5039215;28;20033;-51
2022/10/30 01:43:02;;;;;;;24.77;6.72;;;;;;;16.10;80.37;101717.91;5033907;28;20538;-51
2022/10/30 01:45:58;;;;;;;20.15;6.50;;;;;;;16.16;80.13;101718.03;5038723;28;20033;-50
2022/10/30 01:48:43;;;;;;;14.68;6.75;;;;;;;16.15;80.09;101723.19;5035919;28;20171;-50
2022/10/30 01:51:20;;;;;;;18.08;7.20;;;;;;;16.08;80.20;101725.69;5040327;28;20604;-51
2022/10/30 01:54:03;;;;;;;21.00;7.18;;;;;;;16.07;80.48;101725.63;5029039;28;20060;-51
2022/10/30 01:56:43;;;;;;;15.90;6.30;;;;;;;16.03;80.63;101722.13;5035915;28;20406;-50
2022/10/30 01:59:29;;;;;;;20.10;6.97;;;;;;;16.08;80.83;101722.22;5040259;28;20025;-51
2022/10/30 02:01:55;;;;;;;22.42;7.22;;;;;;;15.95;81.00;101722.78;5034387;28;20044;-50
2022/10/30 02:04:20;;;;;;;21.48;7.38;;;;;;;15.99;81.12;101737.59;5036352;28;20025;-51
2022/10/30 02:06:46;;;;;;;19.23;7.25;;;;;;;15.96;81.23;101716.78;5039276;28;20033;-49
2022/10/30 02:09:15;;;;;;;15.10;6.80;;;;;;;15.96;81.34;101733.22;5037678;28;20183;-52
2022/10/30 02:11:41;;;;;;;18.90;7.40;;;;;;;15.90;81.49;101730.50;5040484;28;20031;-52
2022/10/30 02:14:09;;;;;;;18.65;6.65;;;;;;;15.89;81.64;101735.66;5029885;28;20397;-51
2022/10/30 02:16:40;;;;;;;17.67;7.00;;;;;;;15.87;81.45;101727.84;5040473;28;20035;-51
2022/10/30 02:19:06;;;;;;;18.02;7.10;;;;;;;15.86;81.55;101733.88;5034943;28;20112;-51
2022/10/30 02:21:31;;;;;;;20.58;6.90;;;;;;;15.90;81.25;101722.72;5034509;28;21373;-49
2022/10/30 02:23:57;;;;;;;13.30;7.32;;;;;;;15.89;81.58;101720.09;5033098;28;20482;-51
2022/10/30 02:26:22;;;;;;;17.15;7.45;;;;;;;15.89;81.68;101723.53;5034746;28;20477;-51
2022/10/30 02:28:47;;;;;;;21.00;6.85;;;;;;;15.88;81.68;101729.59;5040437;28;20546;-52
2022/10/30 02:31:13;;;;;;;18.88;7.35;;;;;;;15.90;81.91;101733.09;5040991;28;20086;-50
2022/10/30 02:33:43;;;;;;;26.38;7.47;;;;;;;15.88;81.78;101734.78;5033730;28;20047;-51
2022/10/30 02:36:09;;;;;;;13.98;7.07;;;;;;;15.80;81.94;101734.63;5032367;28;20108;-49
2022/10/30 02:38:34;;;;;;;20.98;7.28;;;;;;;15.82;81.60;101745.88;5027975;28;20112;-52
2022/10/30 02:40:59;;;;;;;23.08;7.80;;;;;;;15.79;81.85;101739.78;5035910;28;20025;-51
2022/10/30 02:43:24;;;;;;;23.77;7.75;;;;;;;15.77;81.95;101746.63;5033481;28;20048;-51
2022/10/30 02:45:51;;;;;;;17.50;7.40;;;;;;;15.72;81.97;101743.97;5030760;28;20041;-50
2022/10/30 02:48:16;;;;;;;17.80;7.07;;;;;;;15.69;82.13;101741.31;5024498;28;20029;-50
2022/10/30 02:50:42;;;;;;;16.40;7.00;;;;;;;15.67;82.26;101744.72;5034278;28;20043;-50
2022/10/30 02:53:07;;;;;;;16.90;6.70;;;;;;;15.67;82.13;101743.00;5035765;28;20037;-51
2022/10/30 02:55:33;;;;;;;21.27;7.15;;;;;;;15.69;82.13;101736.13;5036072;28;20056;-51
2022/10/30 02:57:58;;;;;;;19.10;7.30;;;;;;;15.66;82.24;101741.25;5034870;28;20105;-50
2022/10/30 03:00:23;;;;;;;20.88;7.43;;;;;;;15.65;82.41;101741.19;5038602;28;20052;-50
2022/10/30 03:02:54;;;;;;;15.85;6.93;;;;;;;15.68;82.54;101744.75;5037315;28;20481;-50
2022/10/30 03:05:19;;;;;;;17.70;7.13;;;;;;;15.68;82.76;101736.97;5040072;28;20047;-50
2022/10/30 03:07:47;;;;;;;14.65;7.10;;;;;;;15.66;82.71;101741.25;5033240;28;20029;-50
2022/10/30 03:10:12;;;;;;;17.13;7.38;;;;;;;15.62;82.84;101730.75;5034473;28;20541;-50
2022/10/30 03:12:37;;;;;;;18.38;7.68;;;;;;;15.65;82.94;101736.00;5034864;28;20499;-51
2022/10/30 03:15:03;;;;;;;21.52;7.15;;;;;;;15.62;82.82;101730.75;5037979;28;20035;-50
2022/10/30 03:17:29;;;;;;;19.52;7.28;;;;;;;15.60;83.29;101732.44;5032857;28;20455;-51
2022/10/30 03:19:54;;;;;;;16.00;6.80;;;;;;;15.62;82.98;101730.75;5035507;28;20104;-50
2022/10/30 03:22:19;;;;;;;14.80;7.13;;;;;;;15.61;82.82;101734.19;5038927;28;20069;-51
2022/10/30 03:24:45;;;;;;;13.65;6.97;;;;;;;15.62;83.04;101725.56;5036360;28;20025;-50
2022/10/30 03:27:10;;;;;;;19.55;6.95;;;;;;;15.61;83.01;101726.41;5038839;28;20397;-51
2022/10/30 03:29:35;;;;;;;20.23;7.25;;;;;;;15.59;83.19;101726.34;5034650;28;20473;-51
2022/10/30 03:32:01;;;;;;;17.05;7.18;;;;;;;15.57;83.05;101722.84;5035299;28;20454;-51
2022/10/30 03:34:26;;;;;;;18.25;6.88;;;;;;;15.57;83.28;101728.91;5032030;28;20087;-51
2022/10/30 03:36:52;;;;;;;15.35;7.15;;;;;;;15.57;83.30;101733.22;5042814;28;20846;-49
2022/10/30 03:39:17;;;;;;;20.02;7.50;;;;;;;15.59;83.42;101734.13;5030644;28;20028;-51
2022/10/30 03:41:42;;;;;;;16.38;7.63;;;;;;;15.57;83.45;101738.41;5032402;28;20161;-51
2022/10/30 03:44:08;;;;;;;19.05;7.47;;;;;;;15.50;83.97;101729.63;5031212;28;20095;-51
2022/10/30 03:46:34;;;;;;;17.40;7.30;;;;;;;15.52;83.71;101727.94;5037438;28;20024;-51
2022/10/30 03:49:00;;;;;;;18.65;7.30;;;;;;;15.50;83.62;101731.34;5032991;28;20026;-51
2022/10/30 03:51:25;;;;;;;14.15;7.05;;;;;;;15.46;83.91;101740.75;5037227;28;20044;-51
2022/10/30 03:53:50;;;;;;;17.60;7.53;;;;;;;15.46;84.34;101740.75;5034618;28;20573;-50
2022/10/30 03:56:16;;;;;;;22.63;7.80;;;;;;;15.47;84.01;101741.63;5030145;28;20048;-51
2022/10/30 03:58:41;;;;;;;15.93;6.88;;;;;;;15.39;84.15;101745.78;5032035;28;20030;-51
2022/10/30 04:01:08;;;;;;;16.65;7.30;;;;;;;15.40;84.26;101747.53;5037412;28;20029;-48
2022/10/30 04:03:34;;;;;;;16.85;7.05;;;;;;;15.37;84.25;101745.75;5039782;28;20521;-50
2022/10/30 04:05:59;;;;;;;19.52;6.78;;;;;;;15.40;83.93;101745.81;5042888;28;20029;-51
2022/10/30 04:08:25;;;;;;;17.83;7.63;;;;;;;15.36;84.00;101753.50;5029472;28;20041;-51
2022/10/30 04:10:50;;;;;;;18.20;7.25;;;;;;;15.34;84.27;101755.16;5032551;28;20033;-51
2022/10/30 04:13:16;;;;;;;17.13;7.10;;;;;;;15.27;84.25;101764.53;5040474;28;20493;-50
2022/10/30 04:15:42;;;;;;;19.88;7.28;;;;;;;15.24;84.44;101759.28;5043330;28;20075;-50
2022/10/30 04:18:11;;;;;;;21.48;8.13;;;;;;;15.27;84.41;101752.44;5036018;28;20044;-50
2022/10/30 04:20:37;;;;;;;18.20;7.07;;;;;;;15.23;84.35;101749.75;5031613;28;20496;-51
2022/10/30 04:23:05;;;;;;;18.33;7.60;;;;;;;15.22;84.33;101746.28;5040547;28;20040;-51
2022/10/30 04:25:33;;;;;;;16.90;7.10;;;;;;;15.16;84.44;101742.66;5042525;28;20127;-51
2022/10/30 04:27:59;;;;;;;22.40;7.63;;;;;;;15.13;84.60;101737.44;5041076;28;20048;-51
2022/10/30 04:30:26;;;;;;;19.15;7.47;;;;;;;15.08;84.70;101741.63;5037994;28;20034;-50
2022/10/30 04:32:56;;;;;;;17.73;7.55;;;;;;;15.10;84.79;101747.69;5039965;28;20032;-48
2022/10/30 04:35:26;;;;;;;16.27;7.10;;;;;;;15.08;85.00;101744.22;5040420;28;20543;-51
2022/10/30 04:37:55;;;;;;;13.95;7.43;;;;;;;15.07;84.75;101745.06;5036890;28;20029;-51
2022/10/30 04:40:23;;;;;;;16.38;7.55;;;;;;;14.98;85.24;101736.22;5039091;28;20033;-51
2022/10/30 04:42:49;;;;;;;19.60;7.38;;;;;;;15.00;85.33;101733.69;5039758;28;20029;-52
2022/10/30 04:45:14;;;;;;;15.32;7.10;;;;;;;15.01;85.27;101731.13;5039778;28;20025;-51
2022/10/30 04:47:39;;;;;;;16.88;7.75;;;;;;;15.03;85.57;101723.38;5039084;28;20021;-51
2022/10/30 04:50:05;;;;;;;16.63;7.05;;;;;;;15.06;85.73;101714.81;5034669;28;20389;-51
2022/10/30 04:52:31;;;;;;;18.40;7.55;;;;;;;15.04;85.82;101714.75;5039833;28;20068;-51
2022/10/30 04:54:56;;;;;;;17.42;7.30;;;;;;;15.00;85.89;101719.00;5041434;28;20450;-50
2022/10/30 04:57:21;;;;;;;20.05;7.90;;;;;;;15.02;86.09;101713.88;5039675;28;20043;-49
2022/10/30 04:59:47;;;;;;;18.48;7.85;;;;;;;15.01;85.79;101713.00;5031016;28;20021;-50
2022/10/30 05:02:12;;;;;;;18.13;7.90;;;;;;;15.01;85.88;101713.00;5036210;28;20098;-51
2022/10/30 05:04:38;;;;;;;15.43;7.47;;;;;;;14.97;86.16;101716.34;5032999;28;20033;-50
2022/10/30 05:07:03;;;;;;;16.85;7.43;;;;;;;14.96;86.22;101711.13;5039755;28;20153;-47
2022/10/30 05:09:29;;;;;;;18.55;7.25;;;;;;;14.99;86.27;101717.28;5038975;28;20128;-51
2022/10/30 05:11:55;;;;;;;17.63;7.53;;;;;;;14.97;86.30;101715.47;5035030;28;20486;-51
2022/10/30 05:14:20;;;;;;;16.80;7.90;;;;;;;14.95;86.58;101723.19;5037546;28;20029;-51
2022/10/30 05:16:45;;;;;;;18.55;7.18;;;;;;;14.96;86.58;101724.94;5038898;28;20033;-50
2022/10/30 05:19:11;;;;;;;20.17;7.63;;;;;;;14.92;86.89;101722.25;5035196;28;20033;-51
2022/10/30 05:21:36;;;;;;;18.20;7.53;;;;;;;14.91;86.55;101718.78;5035939;28;20028;-50
2022/10/30 05:24:02;;;;;;;17.27;6.93;;;;;;;14.93;86.74;101721.44;5034914;28;20532;-49
2022/10/30 05:26:27;;;;;;;23.92;7.60;;;;;;;14.88;86.38;101726.50;5033169;28;20059;-51
2022/10/30 05:28:52;;;;;;;14.93;6.90;;;;;;;14.85;86.21;101729.00;5034869;28;20355;-49
2022/10/30 05:31:18;;;;;;;20.85;7.75;;;;;;;14.84;86.51;101727.25;5038009;28;20482;-51
2022/10/30 05:33:43;;;;;;;19.88;7.13;;;;;;;14.82;86.38;101733.25;5033323;28;20033;-49
2022/10/30 05:36:09;;;;;;;16.00;7.15;;;;;;;14.80;86.39;101740.94;5035609;28;20025;-50
2022/10/30 05:38:34;;;;;;;18.90;7.28;;;;;;;14.77;86.59;101732.25;5034547;28;20025;-50
2022/10/30 05:40:59;;;;;;;18.60;7.10;;;;;;;14.78;86.38;101739.16;5038533;28;20398;-51
2022/10/30 05:43:25;;;;;;;19.40;7.70;;;;;;;14.73;86.21;101734.75;5038854;28;20516;-50
2022/10/30 05:45:50;;;;;;;16.23;7.05;;;;;;;14.70;86.31;101738.97;5039988;28;20033;-51
2022/10/30 05:48:15;;;;;;;20.10;7.50;;;;;;;14.70;86.38;101734.69;5044086;28;20029;-51
2022/10/30 05:50:41;;;;;;;17.00;6.93;;;;;;;14.64;86.31;101731.06;5045336;28;20116;-52
2022/10/30 05:53:06;;;;;;;18.20;7.10;;;;;;;14.63;85.92;101727.59;5040646;28;20136;-51
2022/10/30 05:55:32;;;;;;;17.02;7.43;;;;;;;14.60;85.75;101726.63;5041288;28;20111;-50
2022/10/30 05:57:59;;;;;;;20.27;7.07;;;;;;;14.57;86.03;101726.56;5034110;28;20041;-51
2022/10/30 06:00:27;;;;;;;20.27;7.20;;;;;;;14.55;85.83;101717.88;5042392;28;20043;-50
2022/10/30 06:02:58;;;;;;;19.40;7.55;;;;;;;14.59;86.16;101732.66;5044341;28;20076;-47
2022/10/30 06:05:23;;;;;;;14.23;7.40;;;;;;;14.49;86.27;101723.75;5036871;28;20025;-50
2022/10/30 06:07:49;;;;;;;13.57;7.10;;;;;;;14.49;86.51;101724.63;5038527;28;20059;-51
2022/10/30 06:10:14;;;;;;;17.45;7.45;;;;;;;14.47;86.08;101725.44;5040937;28;20140;-51
2022/10/30 06:12:40;;;;;;;13.65;7.10;;;;;;;14.43;86.20;101723.56;5035011;28;20099;-51
2022/10/30 06:15:05;;;;;;;14.85;7.43;;;;;;;14.42;86.00;101727.00;5038939;28;20021;-50
2022/10/30 06:17:31;;;;;;;13.82;6.82;;;;;;;14.34;85.95;101726.81;5036836;28;20037;-48
2022/10/30 06:19:56;;;;;;;15.55;7.30;;;;;;;14.31;86.14;101726.72;5042553;28;20473;-50
2022/10/30 06:22:22;;;;;;;13.35;7.05;;;;;;;14.32;85.62;101728.50;5043926;28;20041;-51
2022/10/30 06:24:47;;;;;;;16.80;7.80;;;;;;;14.29;85.87;101715.47;5040328;28;20025;-51
2022/10/30 06:27:12;;;;;;;15.23;7.22;;;;;;;14.30;86.32;101724.09;5037443;28;20072;-51
2022/10/30 06:29:37;;;;;;;14.57;7.60;;;;;;;14.32;86.26;101719.81;5034847;28;20063;-49
2022/10/30 06:32:03;;;;;;;16.73;7.90;;;;;;;14.30;86.54;101714.63;5043083;28;20037;-51
2022/10/30 06:34:28;;;;;;;16.45;7.57;;;;;;;14.28;86.33;101718.88;5032339;28;20086;-50
2022/10/30 06:36:54;;;;;;;16.50;8.00;;;;;;;14.29;86.51;101717.19;5040903;28;20120;-51
2022/10/30 06:39:19;;;;;;;14.07;7.13;;;;;;;14.27;86.41;101716.28;5036569;28;20456;-51
2022/10/30 06:41:44;;;;;;;17.50;7.85;;;;;;;14.25;86.22;101712.75;5035157;28;20025;-50
2022/10/30 06:44:10;;;;;;;19.65;8.20;;;;;;;14.27;86.41;101713.69;5036964;28;20029;-50
2022/10/30 06:46:35;;;;;;;17.75;7.70;;;;;;;14.27;86.84;101721.44;5038359;28;20107;-51
2022/10/30 06:49:00;;;;;;;16.48;7.90;;;;;;;14.22;87.43;101719.59;5038598;28;20112;-51
2022/10/30 06:51:26;;;;;;;20.10;8.27;;;;;;;14.27;87.42;101721.44;5037007;28;20059;-51
2022/10/30 06:53:51;;;;;;;16.52;7.88;;;;;;;14.24;87.53;101727.38;5034363;28;20214;-50
2022/10/30 06:56:16;;;;;;;20.92;8.45;;;;;;;14.20;87.50;101725.59;5044243;28;20074;-51
2022/10/30 06:58:42;;;;;;;21.13;8.38;;;;;;;14.21;87.60;101725.63;5039606;28;20091;-51
2022/10/30 07:01:08;;;;;;;15.85;8.02;;;;;;;14.16;87.79;101714.25;5034366;28;20026;-51
2022/10/30 07:03:33;;;;;;;20.10;8.25;;;;;;;14.15;87.83;101714.22;5033632;28;20028;-47
2022/10/30 07:05:59;;;;;;;17.00;7.80;;;;;;;14.18;88.08;101706.53;5035786;28;20033;-50
2022/10/30 07:08:24;;;;;;;17.25;7.97;;;;;;;14.20;88.56;101705.75;5027273;28;20041;-50
2022/10/30 07:10:50;;;;;;;16.35;8.07;;;;;;;14.24;88.63;101706.69;5037461;28;20049;-50
2022/10/30 07:13:16;;;;;;;22.02;8.32;;;;;;;14.22;88.71;101705.78;5032210;28;20056;-51
2022/10/30 07:15:41;;;;;;;18.55;8.65;;;;;;;14.25;88.94;101711.03;5033305;28;20504;-50
2022/10/30 07:18:08;;;;;;;19.63;8.75;;;;;;;14.24;89.03;101709.28;5023608;28;20033;-51
2022/10/30 07:20:35;;;;;;;20.08;8.65;;;;;;;14.25;89.21;101711.03;5033069;28;20037;-51
2022/10/30 07:23:01;;;;;;;21.48;9.32;;;;;;;14.23;89.55;101715.31;5029084;28;20032;-50
2022/10/30 07:25:27;;;;;;;16.60;8.43;;;;;;;14.26;89.46;101714.50;5033231;28;20029;-53
2022/10/30 07:27:54;;;;;;;23.48;8.68;;;;;;;14.25;89.54;101712.75;5033596;28;20044;-50
2022/10/30 07:30:22;;;;;;;18.35;9.20;;;;;;;14.25;89.52;101713.63;5036037;28;20584;-50
2022/10/30 07:33:03;;;;;;;16.95;8.88;;;;;;;14.32;89.38;101712.97;5034951;28;20036;-51
2022/10/30 07:35:30;;;;;;;17.45;8.98;;;;;;;14.33;89.45;101717.31;5034537;28;20132;-52
2022/10/30 07:38:10;;;;;;;17.20;9.13;;;;;;;14.35;89.68;101719.94;5028975;28;20025;-55
2022/10/30 07:40:35;;;;;;;19.98;9.10;;;;;;;14.31;90.25;101716.38;5033094;28;20057;-53
2022/10/30 07:43:03;;;;;;;19.65;9.43;;;;;;;14.35;90.26;101719.94;5032095;28;20111;-56
2022/10/30 07:45:28;;;;;;;20.95;8.85;;;;;;;14.36;90.37;101716.50;5036722;28;20100;-56
2022/10/30 07:47:54;;;;;;;20.35;9.48;;;;;;;14.39;90.16;101716.59;5029317;28;20040;-55
2022/10/30 07:50:20;;;;;;;17.65;9.88;;;;;;;14.38;90.38;101715.72;5041791;28;20605;-55
2022/10/30 07:52:46;;;;;;;23.88;10.48;;;;;;;14.40;90.13;101708.88;5044659;28;20037;-57
2022/10/30 07:55:11;;;;;;;18.58;9.45;;;;;;;14.46;90.68;101719.41;5029456;28;20032;-51
2022/10/30 07:57:39;;;;;;;13.80;8.57;;;;;;;14.48;90.61;101712.53;5029090;28;20037;-56
2022/10/30 08:00:09;;;;;;;25.23;9.98;;;;;;;14.49;90.80;101711.69;5038089;28;20061;-56
2022/10/30 08:02:35;;;;;;;16.63;9.27;;;;;;;14.52;90.50;101715.22;5029248;28;20044;-56
2022/10/30 08:05:00;;;;;;;20.35;8.68;;;;;;;14.49;91.24;101719.47;5038771;28;20168;-55
2022/10/30 08:07:34;;;;;;;23.52;9.60;;;;;;;14.58;91.20;101715.38;5034563;28;20029;-52
2022/10/30 08:09:59;;;;;;;18.02;8.95;;;;;;;14.53;91.51;101709.22;5036714;28;20045;-52
2022/10/30 08:12:26;;;;;;;19.92;9.10;;;;;;;14.58;91.03;101713.66;5028649;28;20490;-56
2022/10/30 08:14:52;;;;;;;18.52;9.02;;;;;;;14.64;91.26;101707.78;5038493;28;20051;-55
2022/10/30 08:17:18;;;;;;;22.73;9.13;;;;;;;14.65;91.33;101701.75;5028968;28;20029;-56
2022/10/30 08:19:43;;;;;;;19.98;9.35;;;;;;;14.71;91.38;101696.72;5031614;28;20029;-54
2022/10/30 08:22:09;;;;;;;17.77;9.00;;;;;;;14.76;91.18;101700.31;5027229;28;20036;-56
2022/10/30 08:24:35;;;;;;;15.60;8.70;;;;;;;14.79;91.07;101696.91;5030335;28;20025;-55
2022/10/30 08:27:01;;;;;;;19.25;8.63;;;;;;;14.83;91.24;101702.19;5030539;28;20079;-55
2022/10/30 08:29:26;;;;;;;17.23;8.55;;;;;;;14.86;91.25;101709.16;5032179;28;20443;-54
2022/10/30 08:31:51;;;;;;;20.67;7.93;;;;;;;14.92;91.86;101715.34;5030348;28;20159;-55
2022/10/30 08:34:17;;;;;;;17.70;9.10;;;;;;;14.91;91.59;101718.78;5037355;28;20113;-54
2022/10/30 08:36:42;;;;;;;24.45;9.05;;;;;;;14.98;91.38;101718.06;5032566;28;20041;-55
2022/10/30 08:39:08;;;;;;;19.27;8.93;;;;;;;15.06;92.26;101718.28;5031149;28;20441;-56
2022/10/30 08:41:33;;;;;;;15.48;8.45;;;;;;;15.13;91.80;101714.13;5033785;28;20036;-56
2022/10/30 08:43:59;;;;;;;19.38;8.48;;;;;;;15.18;91.66;101715.09;5029882;28;20030;-55
2022/10/30 08:46:24;;;;;;;18.63;9.20;;;;;;;15.25;91.59;101710.09;5038862;28;20050;-56
2022/10/30 08:48:49;;;;;;;19.65;8.55;;;;;;;15.31;91.42;101709.34;5038329;28;20377;-56
2022/10/30 08:51:15;;;;;;;14.70;9.38;;;;;;;15.41;90.80;101708.72;5034626;28;20500;-55
2022/10/30 08:53:40;;;;;;;19.95;9.50;;;;;;;15.48;90.93;101710.59;5036929;28;20036;-56
2022/10/30 08:56:06;;;;;;;18.33;9.82;;;;;;;15.57;90.46;101715.09;5036892;28;20033;-55
2022/10/30 08:58:31;;;;;;;22.90;9.48;;;;;;;15.64;89.52;101711.81;5038551;28;20033;-55
2022/10/30 09:00:56;;;;;;;19.30;9.10;;;;;;;15.81;89.56;101717.34;5035438;28;20095;-55
2022/10/30 09:03:22;;;;;;;14.55;8.80;;;;;;;15.96;89.22;101714.19;5048091;28;20044;-56
2022/10/30 09:05:48;;;;;;;21.05;9.20;;;;;;;16.15;88.33;101712.81;5051086;28;20017;-55
2022/10/30 09:08:13;;;;;;;15.57;8.65;;;;;;;16.27;87.93;101710.44;5043187;28;20038;-55
2022/10/30 09:10:39;;;;;;;18.13;8.65;;;;;;;16.52;87.79;101704.84;5044828;28;20139;-55
2022/10/30 09:13:04;;;;;;;16.08;9.07;;;;;;;16.67;86.73;101706.81;5040006;28;20028;-54
2022/10/30 09:15:29;;;;;;;20.30;8.88;;;;;;;16.78;86.00;101699.22;5040839;28;20021;-55
2022/10/30 09:18:00;;;;;;;20.85;8.25;;;;;;;17.05;85.33;101699.66;5031257;28;20116;-56
2022/10/30 09:20:26;;;;;;;16.02;8.20;;;;;;;17.16;84.79;101694.59;5033852;28;20040;-56
2022/10/30 09:22:52;;;;;;;15.43;7.85;;;;;;;17.34;84.04;101679.25;5036780;28;20505;-56
2022/10/30 09:25:17;;;;;;;13.85;7.95;;;;;;;17.49;83.54;101686.41;5045819;28;20056;-55
2022/10/30 09:27:43;;;;;;;17.58;7.85;;;;;;;17.55;83.09;101683.88;5036999;28;20044;-56
2022/10/30 09:30:09;;;;;;;17.65;8.02;;;;;;;17.63;82.27;101683.97;5036629;28;20104;-56
2022/10/30 09:32:34;;;;;;;16.88;7.55;;;;;;;17.61;81.98;101683.94;5039212;28;20057;-56
2022/10/30 09:34:59;;;;;;;14.32;7.18;;;;;;;17.68;82.21;101684.91;5035752;28;20035;-56
2022/10/30 09:37:26;;;;;;;16.55;7.95;;;;;;;17.66;84.05;101686.63;5035403;28;20037;-55
2022/10/30 09:39:51;;;;;;;16.00;7.07;;;;;;;17.71;82.59;101687.50;5046424;28;20025;-56
2022/10/30 09:42:19;;;;;;;14.60;7.65;;;;;;;17.78;81.76;101692.00;5035994;28;20029;-56
2022/10/30 09:45:08;;;;;;;19.03;7.87;;;;;;;17.77;83.08;101689.34;5045045;28;20031;-55
2022/10/30 09:47:55;;;;;;;17.85;7.43;;;;;;;17.86;82.63;101687.75;5042198;28;20435;-55
2022/10/30 09:50:31;;;;;;;17.35;7.75;;;;;;;17.84;82.32;101706.81;5043573;28;20425;-55
2022/10/30 09:53:24;;;;;;;16.17;6.95;;;;;;;17.88;83.21;101718.97;5027408;28;20509;-56
2022/10/30 09:55:59;;;;;;;17.73;7.68;;;;;;;17.83;82.69;101725.84;5039139;28;20111;-56
2022/10/30 09:58:37;;;;;;;14.50;7.55;;;;;;;17.79;83.34;101734.50;5035469;28;20100;-56
2022/10/30 10:01:29;;;;;;;15.32;7.13;;;;;;;17.80;83.33;101728.44;5049073;28;20037;-55
2022/10/30 10:04:07;;;;;;;18.10;7.70;;;;;;;17.72;83.32;101723.13;5029419;28;20083;-56
2022/10/30 10:06:38;;;;;;;19.85;8.35;;;;;;;17.73;83.47;101724.00;5034828;28;20040;-55
2022/10/30 10:09:14;;;;;;;16.80;8.10;;;;;;;17.72;83.46;101724.88;5037880;28;20539;-55
2022/10/30 10:11:54;;;;;;;20.90;8.13;;;;;;;17.74;85.13;101730.94;5038321;28;20073;-56
2022/10/30 10:14:25;;;;;;;19.00;8.20;;;;;;;17.76;84.30;101719.69;5027001;28;20079;-55
2022/10/30 10:16:52;;;;;;;16.83;8.18;;;;;;;17.81;84.71;101715.44;5036728;28;20393;-56
2022/10/30 10:19:19;;;;;;;17.08;8.38;;;;;;;17.86;84.31;101715.50;5030715;28;20257;-56
2022/10/30 10:21:58;;;;;;;15.23;7.75;;;;;;;17.92;83.44;101706.03;5042532;28;20036;-55
2022/10/30 10:24:31;;;;;;;;;;;;;;;18.04;83.95;101707.03;5028377;28;20033;-55
2022/10/30 10:27:04;;;;;;;19.80;8.40;;;;;;;18.01;83.71;101709.56;5027447;28;19968;-56
2022/10/30 10:29:40;;;;;;;22.13;8.93;;;;;;;18.03;83.41;101698.34;5033750;28;20116;-55
2022/10/30 10:32:37;;;;;;;14.77;8.48;;;;;;;18.08;84.08;101701.88;5027589;28;20025;-56
2022/10/30 10:35:34;;;;;;;18.85;7.95;;;;;;;18.11;83.30;101699.28;5033319;28;20025;-56
2022/10/30 10:38:37;;;;;;;17.92;8.20;;;;;;;18.15;83.95;101697.59;5030424;28;20033;-55
2022/10/30 10:41:08;;;;;;;131.20;12.77;;;;;;;18.19;83.79;101700.22;5044177;28;20022;-56
2022/10/30 10:43:48;;;;;;;59.75;10.50;;;;;;;18.23;83.39;101694.19;5034710;28;20071;-56
2022/10/30 10:47:10;;;;;;;55.97;10.32;;;;;;;18.27;83.23;101691.66;5031219;28;20028;-56
2022/10/30 10:50:03;;;;;;;19.75;8.57;;;;;;;18.32;81.96;101693.44;5020614;28;20151;-56
2022/10/30 10:52:59;;;;;;;17.70;7.78;;;;;;;18.40;81.29;101696.09;5028189;28;20512;-55
2022/10/30 10:55:31;;;;;;;25.95;9.18;;;;;;;18.38;81.86;101703.91;5025721;28;20072;-56
2022/10/30 10:58:04;;;;;;;29.00;9.30;;;;;;;18.49;81.68;101699.63;5024435;28;20037;-56
2022/10/30 11:00:30;;;;;;;19.63;8.38;;;;;;;18.60;79.91;101702.34;5028702;28;20505;-55
2022/10/30 11:03:10;;;;;;;24.38;8.32;;;;;;;18.63;80.98;101701.50;5027214;28;20072;-55
2022/10/30 11:05:48;;;;;;;14.25;6.50;;;;;;;18.71;79.67;101700.75;5029902;28;20076;-56
2022/10/30 11:08:23;;;;;;;23.55;7.25;;;;;;;18.74;80.76;101699.88;5027006;28;20500;-56
2022/10/30 11:10:56;;;;;;;18.58;7.00;;;;;;;18.81;80.12;101700.78;5024784;28;20127;-58
2022/10/30 11:13:26;;;;;;;39.35;7.80;;;;;;;18.87;78.76;101691.31;5026060;28;20437;-54
2022/10/30 11:16:16;;;;;;;17.08;7.03;;;;;;;18.96;78.61;101680.94;5025506;28;20017;-56
2022/10/30 11:18:43;;;;;;;25.55;7.68;;;;;;;19.00;78.69;101684.44;5025540;28;20076;-55
2022/10/30 11:21:37;;;;;;;21.27;7.45;;;;;;;19.07;79.53;101680.16;5028061;28;20054;-56
2022/10/30 11:24:14;;;;;;;16.40;7.10;;;;;;;19.10;78.91;101672.31;5028923;28;20316;-56